createdAt,value
2022-10-12T00:02:26.163Z,100.00
2022-10-12T00:04:53.265Z,100.00
2022-10-12T00:07:20.340Z,100.00
2022-10-12T00:09:47.399Z,100.00
2022-10-12T00:12:14.443Z,100.00
2022-10-12T00:14:41.525Z,100.00
2022-10-12T00:17:08.667Z,100.00
2022-10-12T00:19:35.747Z,100.00
2022-10-12T00:22:02.836Z,100.00
2022-10-12T00:24:30.024Z,100.00
2022-10-12T00:26:58.299Z,100.00
2022-10-12T00:29:25.420Z,100.00
2022-10-12T00:31:52.473Z,100.00
2022-10-12T00:34:19.518Z,100.00
2022-10-12T00:36:46.583Z,100.00
2022-10-12T00:39:13.705Z,100.00
2022-10-12T00:41:43.060Z,100.00
2022-10-12T00:44:38.134Z,100.00
2022-10-12T00:47:13.229Z,100.00
2022-10-12T00:49:40.501Z,100.00
2022-10-12T00:52:11.424Z,100.00
2022-10-12T00:54:43.782Z,100.00
2022-10-12T00:57:13.399Z,100.00
2022-10-12T00:59:44.040Z,100.00
2022-10-12T01:02:12.680Z,100.00
2022-10-12T01:04:40.428Z,100.00
2022-10-12T01:07:07.533Z,100.00
2022-10-12T01:09:34.699Z,100.00
2022-10-12T01:12:05.101Z,100.00
2022-10-12T01:14:32.176Z,100.00
2022-10-12T01:17:14.262Z,100.00
2022-10-12T01:20:10.247Z,100.00
2022-10-12T01:22:48.277Z,100.00
2022-10-12T01:25:25.288Z,100.00
2022-10-12T01:27:55.456Z,100.00
2022-10-12T01:30:22.603Z,100.00
2022-10-12T01:33:34.266Z,100.00
2022-10-12T01:36:15.473Z,100.00
2022-10-12T01:39:11.709Z,100.00
2022-10-12T01:41:49.655Z,100.00
2022-10-12T01:44:25.255Z,100.00
2022-10-12T01:46:54.393Z,100.00
2022-10-12T01:49:29.129Z,100.00
2022-10-12T01:52:07.471Z,100.00
2022-10-12T01:55:16.884Z,100.00
2022-10-12T01:58:00.748Z,100.00
2022-10-12T02:00:28.886Z,100.00
2022-10-12T02:03:21.988Z,100.00
2022-10-12T02:06:01.253Z,100.00
2022-10-12T02:08:40.817Z,100.00
2022-10-12T02:11:10.098Z,100.00
2022-10-12T02:13:48.192Z,100.00
2022-10-12T02:16:19.837Z,100.00
2022-10-12T02:18:51.855Z,100.00
2022-10-12T02:21:22.395Z,100.00
2022-10-12T02:23:52.497Z,100.00
2022-10-12T02:26:21.379Z,100.00
2022-10-12T02:28:49.685Z,100.00
2022-10-12T02:31:39.433Z,100.00
2022-10-12T02:34:21.259Z,100.00
2022-10-12T02:37:23.557Z,100.00
2022-10-12T02:39:54.422Z,100.00
2022-10-12T02:42:46.590Z,100.00
2022-10-12T02:45:22.752Z,100.00
2022-10-12T02:47:53.733Z,100.00
2022-10-12T02:50:22.902Z,100.00
2022-10-12T02:52:51.287Z,100.00
2022-10-12T02:55:18.442Z,100.00
2022-10-12T02:57:45.591Z,100.00
2022-10-12T03:00:13.143Z,100.00
2022-10-12T03:02:40.199Z,100.00
2022-10-12T03:05:07.590Z,100.00
2022-10-12T03:07:34.712Z,100.00
2022-10-12T03:10:01.855Z,100.00
2022-10-12T03:12:28.903Z,100.00
2022-10-12T03:14:55.953Z,100.00
2022-10-12T03:17:23.079Z,100.00
2022-10-12T03:19:50.131Z,100.00
2022-10-12T03:22:17.153Z,100.00
2022-10-12T03:24:44.237Z,100.00
2022-10-12T03:27:11.268Z,100.00
2022-10-12T03:29:38.408Z,100.00
2022-10-12T03:32:05.455Z,100.00
2022-10-12T03:34:32.516Z,100.00
2022-10-12T03:36:59.554Z,100.00
2022-10-12T03:39:26.726Z,100.00
2022-10-12T03:41:56.129Z,100.00
2022-10-12T03:44:23.259Z,100.00
2022-10-12T03:46:50.404Z,100.00
2022-10-12T03:49:18.515Z,100.00
2022-10-12T03:51:45.545Z,100.00
2022-10-12T03:54:12.705Z,100.00
2022-10-12T03:56:39.877Z,100.00
2022-10-12T03:59:06.987Z,100.00
2022-10-12T04:01:34.097Z,100.00
2022-10-12T04:04:01.245Z,100.00
2022-10-12T04:06:28.314Z,100.00
2022-10-12T04:08:55.432Z,100.00
2022-10-12T04:11:22.947Z,100.00
2022-10-12T04:13:50.142Z,100.00
2022-10-12T04:16:17.242Z,100.00
2022-10-12T04:18:44.530Z,100.00
2022-10-12T04:21:14.782Z,100.00
2022-10-12T04:23:42.505Z,100.00
2022-10-12T04:26:09.805Z,100.00
2022-10-12T04:28:36.933Z,100.00
2022-10-12T04:31:04.022Z,100.00
2022-10-12T04:33:31.545Z,100.00
2022-10-12T04:36:00.890Z,100.00
2022-10-12T04:38:27.951Z,100.00
2022-10-12T04:40:55.058Z,100.00
2022-10-12T04:43:22.194Z,100.00
2022-10-12T04:45:59.846Z,100.00
2022-10-12T04:48:27.166Z,100.00
2022-10-12T04:50:54.226Z,100.00
2022-10-12T04:53:21.316Z,100.00
2022-10-12T04:55:48.479Z,100.00
2022-10-12T04:58:15.604Z,100.00
2022-10-12T05:00:42.764Z,100.00
2022-10-12T05:03:09.839Z,100.00
2022-10-12T05:05:36.904Z,100.00
2022-10-12T05:08:04.975Z,100.00
2022-10-12T05:10:32.084Z,100.00
2022-10-12T05:12:59.216Z,100.00
2022-10-12T05:15:26.274Z,100.00
2022-10-12T05:17:53.524Z,100.00
2022-10-12T05:20:20.622Z,100.00
2022-10-12T05:22:47.712Z,100.00
2022-10-12T05:25:14.846Z,100.00
2022-10-12T05:27:42.450Z,100.00
2022-10-12T05:30:09.981Z,100.00
2022-10-12T05:32:37.861Z,100.00
2022-10-12T05:35:05.563Z,100.00
2022-10-12T05:37:33.615Z,100.00
2022-10-12T05:40:00.657Z,100.00
2022-10-12T05:42:27.718Z,100.00
2022-10-12T05:44:54.768Z,100.00
2022-10-12T05:47:21.894Z,100.00
2022-10-12T05:49:48.988Z,100.00
2022-10-12T05:52:16.123Z,100.00
2022-10-12T05:54:43.204Z,100.00
2022-10-12T05:57:10.312Z,100.00
2022-10-12T05:59:37.354Z,100.00
2022-10-12T06:02:04.467Z,100.00
2022-10-12T06:04:31.612Z,100.00
2022-10-12T06:06:58.722Z,100.00
2022-10-12T06:09:26.041Z,100.00
2022-10-12T06:11:53.185Z,100.00
2022-10-12T06:14:20.225Z,100.00
2022-10-12T06:16:51.090Z,100.00
2022-10-12T06:19:21.735Z,100.00
2022-10-12T06:21:48.796Z,100.00
2022-10-12T06:24:15.923Z,100.00
2022-10-12T06:26:42.969Z,100.00
2022-10-12T06:29:10.037Z,100.00
2022-10-12T06:31:38.402Z,100.00
2022-10-12T06:34:06.349Z,100.00
2022-10-12T06:36:33.436Z,100.00
2022-10-12T06:39:00.498Z,100.00
2022-10-12T06:41:27.578Z,100.00
2022-10-12T06:43:54.660Z,100.00
2022-10-12T06:46:21.730Z,100.00
2022-10-12T06:48:48.828Z,100.00
2022-10-12T06:51:15.929Z,100.00
2022-10-12T06:53:43.084Z,100.00
2022-10-12T06:56:10.942Z,100.00
2022-10-12T06:58:38.568Z,100.00
2022-10-12T07:01:07.714Z,100.00
2022-10-12T07:03:34.932Z,100.00
2022-10-12T07:06:07.469Z,100.00
2022-10-12T07:08:34.795Z,100.00
2022-10-12T07:11:07.114Z,100.00
2022-10-12T07:13:34.670Z,100.00
2022-10-12T07:16:02.051Z,100.00
2022-10-12T07:18:29.161Z,100.00
2022-10-12T07:20:58.468Z,100.00
2022-10-12T07:23:29.861Z,100.00
2022-10-12T07:25:56.974Z,100.00
2022-10-12T07:28:24.227Z,100.00
2022-10-12T07:30:51.403Z,100.00
2022-10-12T07:33:18.496Z,100.00
2022-10-12T07:36:12.925Z,100.00
2022-10-12T07:38:44.822Z,100.00
2022-10-12T07:41:12.772Z,100.00
2022-10-12T07:43:39.886Z,100.00
2022-10-12T07:46:07.443Z,100.00
2022-10-12T07:48:34.575Z,100.00
2022-10-12T07:51:10.007Z,100.00
2022-10-12T07:53:38.628Z,100.00
2022-10-12T07:56:14.780Z,100.00
2022-10-12T07:58:49.715Z,100.00
2022-10-12T08:01:18.341Z,100.00
2022-10-12T08:03:45.437Z,100.00
2022-10-12T08:06:16.650Z,100.00
2022-10-12T08:08:44.050Z,100.00
2022-10-12T08:11:12.358Z,100.00
2022-10-12T08:13:40.459Z,100.00
2022-10-12T08:16:12.066Z,100.00
2022-10-12T08:18:39.403Z,100.00
2022-10-12T08:21:08.511Z,100.00
2022-10-12T08:23:37.045Z,100.00
2022-10-12T08:26:05.121Z,100.00
2022-10-12T08:28:32.952Z,100.00
2022-10-12T08:31:00.188Z,100.00
2022-10-12T08:33:29.171Z,100.00
2022-10-12T08:35:56.222Z,100.00
2022-10-12T08:38:23.329Z,100.00
2022-10-12T08:40:56.525Z,100.00
2022-10-12T08:43:32.658Z,100.00
2022-10-12T08:46:02.400Z,100.00
2022-10-12T08:48:59.441Z,100.00
2022-10-12T08:51:31.343Z,100.00
2022-10-12T08:54:08.185Z,100.00
2022-10-12T08:56:35.829Z,100.00
2022-10-12T08:59:03.573Z,100.00
2022-10-12T09:01:38.368Z,100.00
2022-10-12T09:04:31.263Z,100.00
2022-10-12T09:07:06.190Z,100.00
2022-10-12T09:09:33.245Z,100.00
2022-10-12T09:12:18.624Z,100.00
2022-10-12T09:14:47.747Z,100.00
2022-10-12T09:17:26.155Z,100.00
2022-10-12T09:20:01.772Z,100.00
2022-10-12T09:22:30.365Z,100.00
2022-10-12T09:24:59.070Z,100.00
2022-10-12T09:27:31.436Z,100.00
2022-10-12T09:30:02.783Z,100.00
2022-10-12T09:33:00.141Z,100.00
2022-10-12T09:35:27.428Z,100.00
2022-10-12T09:37:54.887Z,100.00
2022-10-12T09:40:31.087Z,100.00
2022-10-12T09:43:00.715Z,100.00
2022-10-12T09:45:30.825Z,100.00
2022-10-12T09:48:23.979Z,100.00
2022-10-12T09:50:51.033Z,100.00
2022-10-12T09:53:24.698Z,100.00
2022-10-12T09:55:54.087Z,100.00
2022-10-12T09:58:21.778Z,100.00
2022-10-12T10:01:34.950Z,100.00
2022-10-12T10:04:15.744Z,100.00
2022-10-12T10:06:46.349Z,100.00
2022-10-12T10:09:33.015Z,100.00
2022-10-12T10:12:24.145Z,100.00
2022-10-12T10:14:53.623Z,100.00
2022-10-12T10:17:24.617Z,100.00
2022-10-12T10:19:53.484Z,100.00
2022-10-12T10:22:22.388Z,100.00
2022-10-12T10:25:00.204Z,100.00
2022-10-12T10:27:37.183Z,100.00
2022-10-12T10:30:30.104Z,100.00
2022-10-12T10:33:18.315Z,100.00
2022-10-12T10:36:25.000Z,100.00
2022-10-12T10:38:59.955Z,100.00
2022-10-12T10:41:33.154Z,100.00
2022-10-12T10:44:00.242Z,100.00
2022-10-12T10:46:31.687Z,100.00
2022-10-12T10:49:07.146Z,100.00
2022-10-12T10:51:40.262Z,100.00
2022-10-12T10:54:27.493Z,100.00
2022-10-12T10:57:02.232Z,100.00
2022-10-12T10:59:39.238Z,100.00
2022-10-12T11:02:19.652Z,100.00
2022-10-12T11:04:51.877Z,100.00
2022-10-12T11:07:48.273Z,100.00
2022-10-12T11:10:29.048Z,100.00
2022-10-12T11:13:12.360Z,100.00
2022-10-12T11:15:52.846Z,100.00
2022-10-12T11:18:42.335Z,100.00
2022-10-12T11:21:20.818Z,100.00
2022-10-12T11:23:57.084Z,100.00
2022-10-12T11:26:24.183Z,100.00
2022-10-12T11:28:54.866Z,100.00
2022-10-12T11:31:26.545Z,100.00
2022-10-12T11:33:58.208Z,100.00
2022-10-12T11:36:29.689Z,100.00
2022-10-12T11:39:05.867Z,100.00
2022-10-12T11:42:16.791Z,100.00
2022-10-12T11:44:44.398Z,100.00
2022-10-12T11:47:32.512Z,100.00
2022-10-12T11:50:27.424Z,100.00
2022-10-12T11:52:57.307Z,100.00
2022-10-12T11:55:35.091Z,100.00
2022-10-12T11:58:13.697Z,100.00
2022-10-12T12:01:15.717Z,100.00
2022-10-12T12:03:45.852Z,100.00
2022-10-12T12:06:31.026Z,100.00
2022-10-12T12:09:05.412Z,100.00
2022-10-12T12:11:34.618Z,100.00
2022-10-12T12:14:26.552Z,100.00
2022-10-12T12:17:15.625Z,100.00
2022-10-12T12:19:47.823Z,100.00
2022-10-12T12:22:31.230Z,100.00
2022-10-12T12:25:07.928Z,100.00
2022-10-12T12:27:36.963Z,100.00
2022-10-12T12:30:32.364Z,100.00
2022-10-12T12:33:27.209Z,100.00
2022-10-12T12:35:58.881Z,100.00
2022-10-12T12:38:31.956Z,100.00
2022-10-12T12:41:06.974Z,100.00
2022-10-12T12:43:34.015Z,100.00
2022-10-12T12:46:02.286Z,100.00
2022-10-12T12:48:41.525Z,100.00
2022-10-12T12:51:13.399Z,100.00
2022-10-12T12:53:48.652Z,100.00
2022-10-12T12:56:45.059Z,100.00
2022-10-12T12:59:28.845Z,100.00
2022-10-12T13:02:14.411Z,100.00
2022-10-12T13:05:00.207Z,100.00
2022-10-12T13:07:56.603Z,100.00
2022-10-12T13:10:59.721Z,100.00
2022-10-12T13:13:55.682Z,100.00
2022-10-12T13:19:44.374Z,100.00
2022-10-12T13:22:26.032Z,100.00
2022-10-12T13:24:59.195Z,100.00
2022-10-12T13:27:33.973Z,100.00
2022-10-12T13:30:06.223Z,100.00
2022-10-12T13:32:51.135Z,100.00
2022-10-12T13:35:43.383Z,100.00
2022-10-12T13:38:27.885Z,100.00
2022-10-12T13:41:06.335Z,100.00
2022-10-12T13:44:02.622Z,100.00
2022-10-12T13:46:43.514Z,100.00
2022-10-12T13:49:24.966Z,100.00
2022-10-12T13:51:55.845Z,100.00
2022-10-12T13:54:37.515Z,100.00
2022-10-12T13:57:35.792Z,100.00
2022-10-12T14:00:27.653Z,100.00
2022-10-12T14:03:00.424Z,100.00
2022-10-12T14:05:32.112Z,100.00
2022-10-12T14:08:13.056Z,100.00
2022-10-12T14:10:42.017Z,100.00
2022-10-12T14:13:15.548Z,100.00
2022-10-12T14:15:42.870Z,100.00
2022-10-12T14:18:31.542Z,100.00
2022-10-12T14:21:13.149Z,100.00
2022-10-12T14:23:46.938Z,100.00
2022-10-12T14:26:39.661Z,100.00
2022-10-12T14:29:25.437Z,100.00
2022-10-12T14:31:55.714Z,100.00
2022-10-12T14:34:28.437Z,100.00
2022-10-12T14:37:14.275Z,100.00
2022-10-12T14:39:45.937Z,100.00
2022-10-12T14:42:29.505Z,100.00
2022-10-12T14:44:56.662Z,100.00
2022-10-12T14:47:37.533Z,100.00
2022-10-12T14:50:08.368Z,100.00
2022-10-12T14:52:38.171Z,100.00
2022-10-12T14:55:06.521Z,100.00
2022-10-12T14:57:33.676Z,100.00
2022-10-12T15:00:00.899Z,100.00
2022-10-12T15:02:30.732Z,100.00
2022-10-12T15:04:59.258Z,100.00
2022-10-12T15:07:33.688Z,100.00
2022-10-12T15:10:01.267Z,100.00
2022-10-12T15:12:31.811Z,100.00
2022-10-12T15:15:01.212Z,100.00
2022-10-12T15:17:28.124Z,100.00
2022-10-12T15:19:55.799Z,100.00
2022-10-12T15:22:26.073Z,100.00
2022-10-12T15:24:54.450Z,100.00
2022-10-12T15:27:21.939Z,100.00
2022-10-12T15:29:49.050Z,100.00
2022-10-12T15:32:18.477Z,100.00
2022-10-12T15:34:45.439Z,100.00
2022-10-12T15:37:12.451Z,99.20
2022-10-12T15:39:39.645Z,84.18
2022-10-12T15:42:06.704Z,90.43
2022-10-12T15:44:40.818Z,87.96
2022-10-12T15:47:09.902Z,74.13
2022-10-12T15:49:37.053Z,68.96
2022-10-12T15:52:05.921Z,65.75
2022-10-12T15:54:33.216Z,61.30
2022-10-12T15:57:00.288Z,60.86
2022-10-12T15:59:27.575Z,64.21
2022-10-12T16:01:54.693Z,66.00
2022-10-12T16:04:22.447Z,76.92
2022-10-12T16:06:49.549Z,84.15
2022-10-12T16:09:16.597Z,91.01
2022-10-12T16:11:43.692Z,100.00
2022-10-12T16:14:14.307Z,100.00
2022-10-12T16:16:41.391Z,100.00
2022-10-12T16:19:08.458Z,100.00
2022-10-12T16:21:35.530Z,100.00
2022-10-12T16:24:02.621Z,100.00
2022-10-12T16:26:29.693Z,100.00
2022-10-12T16:28:56.782Z,100.00
2022-10-12T16:31:23.966Z,100.00
2022-10-12T16:33:51.197Z,100.00
2022-10-12T16:36:18.292Z,100.00
2022-10-12T16:38:45.546Z,100.00
2022-10-12T16:41:15.197Z,100.00
2022-10-12T16:43:43.700Z,100.00
2022-10-12T16:46:10.975Z,100.00
2022-10-12T16:48:38.343Z,100.00
2022-10-12T16:51:10.660Z,100.00
2022-10-12T16:53:37.841Z,100.00
2022-10-12T16:56:05.134Z,100.00
2022-10-12T16:58:32.938Z,100.00
2022-10-12T17:01:11.733Z,100.00
2022-10-12T17:03:38.994Z,100.00
2022-10-12T17:06:06.460Z,100.00
2022-10-12T17:08:35.482Z,100.00
2022-10-12T17:11:11.440Z,100.00
2022-10-12T17:13:39.746Z,100.00
2022-10-12T17:16:41.129Z,100.00
2022-10-12T17:19:08.366Z,100.00
2022-10-12T17:21:37.676Z,100.00
2022-10-12T17:24:05.068Z,100.00
2022-10-12T17:26:32.150Z,100.00
2022-10-12T17:28:59.262Z,100.00
2022-10-12T17:31:26.396Z,100.00
2022-10-12T17:33:54.175Z,100.00
2022-10-12T17:36:24.497Z,100.00
2022-10-12T17:38:57.901Z,100.00
2022-10-12T17:41:27.174Z,100.00
2022-10-12T17:43:54.901Z,100.00
2022-10-12T17:46:22.824Z,100.00
2022-10-12T17:48:50.510Z,100.00
2022-10-12T17:51:18.183Z,100.00
2022-10-12T17:53:45.319Z,100.00
2022-10-12T17:56:14.126Z,100.00
2022-10-12T17:58:41.375Z,100.00
2022-10-12T18:01:15.306Z,100.00
2022-10-12T18:03:44.452Z,100.00
2022-10-12T18:06:18.255Z,100.00
2022-10-12T18:08:45.679Z,100.00
2022-10-12T18:11:13.664Z,100.00
2022-10-12T18:13:44.341Z,100.00
2022-10-12T18:16:11.733Z,100.00
2022-10-12T18:18:39.553Z,100.00
2022-10-12T18:21:08.214Z,100.00
2022-10-12T18:23:35.293Z,100.00
2022-10-12T18:26:04.606Z,100.00
2022-10-12T18:28:32.133Z,100.00
2022-10-12T18:30:59.339Z,100.00
2022-10-12T18:33:26.551Z,100.00
2022-10-12T18:35:54.223Z,100.00
2022-10-12T18:38:21.333Z,100.00
2022-10-12T18:40:48.469Z,100.00
2022-10-12T18:43:15.753Z,100.00
2022-10-12T18:45:46.027Z,100.00
2022-10-12T18:48:13.490Z,100.00
2022-10-12T18:50:40.585Z,100.00
2022-10-12T18:53:07.741Z,100.00
2022-10-12T18:55:38.237Z,100.00
2022-10-12T18:58:05.694Z,100.00
2022-10-12T19:00:32.994Z,100.00
2022-10-12T19:03:00.098Z,100.00
2022-10-12T19:05:27.181Z,100.00
2022-10-12T19:07:54.279Z,100.00
2022-10-12T19:10:21.341Z,100.00
2022-10-12T19:12:48.396Z,100.00
2022-10-12T19:15:15.517Z,100.00
2022-10-12T19:17:42.599Z,100.00
2022-10-12T19:20:09.877Z,100.00
2022-10-12T19:22:37.087Z,100.00
2022-10-12T19:25:04.429Z,100.00
2022-10-12T19:27:31.569Z,100.00
2022-10-12T19:29:58.613Z,100.00
2022-10-12T19:32:25.687Z,100.00
2022-10-12T19:34:52.921Z,100.00
2022-10-12T19:37:20.029Z,100.00
2022-10-12T19:39:48.791Z,100.00
2022-10-12T19:42:16.194Z,100.00
2022-10-12T19:44:43.492Z,100.00
2022-10-12T19:47:10.553Z,100.00
2022-10-12T19:49:40.877Z,100.00
2022-10-12T19:52:10.316Z,100.00
2022-10-12T19:54:37.362Z,100.00
2022-10-12T19:57:04.483Z,100.00
2022-10-12T19:59:31.621Z,100.00
2022-10-12T20:01:58.704Z,100.00
2022-10-12T20:04:25.734Z,100.00
2022-10-12T20:06:52.851Z,100.00
2022-10-12T20:09:19.919Z,100.00
2022-10-12T20:11:47.051Z,100.00
2022-10-12T20:14:14.102Z,100.00
2022-10-12T20:16:41.230Z,100.00
2022-10-12T20:19:08.389Z,100.00
2022-10-12T20:21:36.569Z,100.00
2022-10-12T20:24:04.089Z,100.00
2022-10-12T20:26:31.419Z,100.00
2022-10-12T20:28:58.459Z,100.00
2022-10-12T20:31:27.485Z,100.00
2022-10-12T20:33:56.002Z,100.00
2022-10-12T20:36:26.683Z,100.00
2022-10-12T20:38:54.400Z,100.00
2022-10-12T20:41:23.154Z,100.00
2022-10-12T20:43:54.081Z,100.00
2022-10-12T20:46:21.148Z,100.00
2022-10-12T20:48:48.189Z,100.00
2022-10-12T20:51:21.694Z,100.00
2022-10-12T20:53:50.745Z,100.00
2022-10-12T20:56:17.944Z,100.00
2022-10-12T20:58:45.149Z,100.00
2022-10-12T21:01:14.607Z,100.00
2022-10-12T21:03:42.375Z,100.00
2022-10-12T21:06:12.257Z,100.00
2022-10-12T21:08:40.753Z,100.00
2022-10-12T21:11:09.728Z,100.00
2022-10-12T21:13:41.232Z,100.00
2022-10-12T21:16:09.515Z,100.00
2022-10-12T21:18:38.377Z,100.00
2022-10-12T21:21:11.356Z,100.00
2022-10-12T21:23:42.496Z,100.00
2022-10-12T21:26:18.128Z,100.00
2022-10-12T21:28:45.935Z,100.00
2022-10-12T21:31:14.428Z,100.00
2022-10-12T21:33:41.793Z,100.00
2022-10-12T21:36:20.189Z,100.00
2022-10-12T21:38:47.702Z,100.00
2022-10-12T21:41:16.304Z,100.00
2022-10-12T21:43:43.696Z,100.00
2022-10-12T21:46:13.156Z,100.00
2022-10-12T21:48:40.322Z,100.00
2022-10-12T21:51:09.070Z,100.00
2022-10-12T21:53:37.344Z,100.00
2022-10-12T21:56:22.320Z,100.00
2022-10-12T21:58:50.985Z,100.00
2022-10-12T22:01:24.530Z,100.00
2022-10-12T22:03:56.325Z,100.00
2022-10-12T22:06:25.425Z,100.00
2022-10-12T22:08:58.003Z,100.00
2022-10-12T22:11:27.141Z,100.00
2022-10-12T22:13:59.354Z,100.00
2022-10-12T22:16:29.023Z,100.00
2022-10-12T22:18:59.712Z,100.00
2022-10-12T22:21:33.283Z,100.00
2022-10-12T22:24:00.811Z,100.00
2022-10-12T22:26:28.231Z,100.00
2022-10-12T22:28:56.038Z,100.00
2022-10-12T22:31:24.660Z,100.00
2022-10-12T22:33:53.293Z,100.00
2022-10-12T22:36:20.357Z,100.00
2022-10-12T22:38:47.486Z,100.00
2022-10-12T22:41:17.189Z,100.00
2022-10-12T22:43:52.360Z,100.00
2022-10-12T22:46:21.101Z,100.00
2022-10-12T22:48:48.509Z,100.00
2022-10-12T22:51:18.947Z,100.00
2022-10-12T22:53:46.102Z,100.00
2022-10-12T22:56:18.409Z,100.00
2022-10-12T22:58:46.603Z,100.00
2022-10-12T23:01:16.257Z,100.00
2022-10-12T23:03:43.519Z,100.00
2022-10-12T23:06:12.761Z,100.00
2022-10-12T23:08:40.314Z,100.00
2022-10-12T23:11:12.745Z,100.00
2022-10-12T23:13:40.998Z,100.00
2022-10-12T23:16:10.962Z,100.00
2022-10-12T23:18:39.152Z,100.00
2022-10-12T23:21:08.864Z,100.00
2022-10-12T23:23:37.272Z,100.00
2022-10-12T23:26:07.476Z,100.00
2022-10-12T23:28:35.045Z,100.00
2022-10-12T23:31:06.435Z,100.00
2022-10-12T23:33:34.203Z,100.00
2022-10-12T23:36:07.223Z,100.00
2022-10-12T23:38:36.311Z,100.00
2022-10-12T23:41:04.596Z,100.00
2022-10-12T23:43:32.310Z,100.00
2022-10-12T23:46:02.916Z,100.00
2022-10-12T23:48:30.127Z,100.00
2022-10-12T23:50:57.183Z,100.00
2022-10-12T23:53:25.149Z,100.00
2022-10-12T23:55:53.122Z,100.00
2022-10-12T23:58:20.442Z,100.00
